createdAt,value
2018-07-17T00:00:05.337Z,10.70
2018-07-17T00:02:34.044Z,14.73
2018-07-17T00:05:02.742Z,11.33
2018-07-17T00:07:31.429Z,14.10
2018-07-17T00:10:00.109Z,12.37
2018-07-17T00:12:28.817Z,11.73
2018-07-17T00:14:57.573Z,14.13
2018-07-17T00:17:26.298Z,11.50
2018-07-17T00:19:55.001Z,11.40
2018-07-17T00:22:23.689Z,10.37
2018-07-17T00:24:52.415Z,15.13
2018-07-17T00:27:21.083Z,12.97
2018-07-17T00:29:49.798Z,12.70
2018-07-17T00:32:18.509Z,13.67
2018-07-17T00:34:47.218Z,15.03
2018-07-17T00:37:15.942Z,15.83
2018-07-17T00:39:44.709Z,15.63
2018-07-17T00:42:13.470Z,13.90
2018-07-17T00:44:42.224Z,18.60
2018-07-17T00:47:11.034Z,18.00
2018-07-17T00:49:39.749Z,12.23
2018-07-17T00:52:08.502Z,11.40
2018-07-17T00:54:43.837Z,10.83
2018-07-17T00:57:12.520Z,12.10
2018-07-17T00:59:41.321Z,14.17
2018-07-17T01:02:15.183Z,12.80
2018-07-17T01:04:49.121Z,13.53
2018-07-17T01:07:22.885Z,12.43
2018-07-17T01:09:56.824Z,16.43
2018-07-17T01:12:24.686Z,12.03
2018-07-17T01:14:59.135Z,16.70
2018-07-17T01:17:28.532Z,15.67
2018-07-17T01:19:57.303Z,13.13
2018-07-17T01:22:26.011Z,11.77
2018-07-17T01:24:54.752Z,19.27
2018-07-17T01:27:23.481Z,19.60
2018-07-17T01:29:52.249Z,12.30
2018-07-17T01:32:20.945Z,15.37
2018-07-17T01:34:49.652Z,12.53
2018-07-17T01:37:18.414Z,13.23
2018-07-17T01:39:47.093Z,12.57
2018-07-17T01:42:15.830Z,13.33
2018-07-17T01:44:44.534Z,12.20
2018-07-17T01:47:13.241Z,12.50
2018-07-17T01:49:41.980Z,13.20
2018-07-17T01:52:10.714Z,13.13
2018-07-17T01:54:39.467Z,12.70
2018-07-17T01:57:08.310Z,13.00
2018-07-17T01:59:37.179Z,13.20
2018-07-17T02:02:05.982Z,13.77
2018-07-17T02:04:34.709Z,13.13
2018-07-17T02:07:03.457Z,12.47
2018-07-17T02:09:32.262Z,12.90
2018-07-17T02:12:01.012Z,12.43
2018-07-17T02:14:29.846Z,12.33
2018-07-17T02:16:58.607Z,13.40
2018-07-17T02:19:27.342Z,13.07
2018-07-17T02:21:56.079Z,13.20
2018-07-17T02:24:24.879Z,12.57
2018-07-17T02:26:53.586Z,12.97
2018-07-17T02:29:22.353Z,12.03
2018-07-17T02:31:51.165Z,12.77
2018-07-17T02:34:19.926Z,12.00
2018-07-17T02:36:48.640Z,12.00
2018-07-17T02:39:17.415Z,12.53
2018-07-17T02:41:46.124Z,13.00
2018-07-17T02:44:14.841Z,12.03
2018-07-17T02:46:43.636Z,12.83
2018-07-17T02:49:12.334Z,12.80
2018-07-17T02:51:41.113Z,12.87
2018-07-17T02:54:09.826Z,11.77
2018-07-17T02:56:38.621Z,12.87
2018-07-17T02:59:07.370Z,12.33
2018-07-17T03:01:36.220Z,12.40
2018-07-17T03:04:04.983Z,12.77
2018-07-17T03:06:33.773Z,12.03
2018-07-17T03:09:02.525Z,12.27
2018-07-17T03:11:31.271Z,12.60
2018-07-17T03:14:00.047Z,12.40
2018-07-17T03:16:28.774Z,11.63
2018-07-17T03:18:57.598Z,12.87
2018-07-17T03:21:26.395Z,12.43
2018-07-17T03:23:55.133Z,12.87
2018-07-17T03:26:23.868Z,13.47
2018-07-17T03:28:52.638Z,12.47
2018-07-17T03:31:21.385Z,13.20
2018-07-17T03:33:50.091Z,12.33
2018-07-17T03:36:18.885Z,13.03
2018-07-17T03:38:47.578Z,13.67
2018-07-17T03:41:16.338Z,12.57
2018-07-17T03:43:45.055Z,12.80
2018-07-17T03:46:13.856Z,12.67
2018-07-17T03:48:42.594Z,13.03
2018-07-17T03:51:11.459Z,13.33
2018-07-17T03:53:40.452Z,12.63
2018-07-17T03:56:09.201Z,12.67
2018-07-17T03:58:37.888Z,12.67
2018-07-17T04:01:06.938Z,13.10
2018-07-17T04:03:35.647Z,14.13
2018-07-17T04:06:04.363Z,13.07
2018-07-17T04:08:33.121Z,13.30
2018-07-17T04:11:01.866Z,13.90
2018-07-17T04:13:30.606Z,12.97
2018-07-17T04:15:59.357Z,13.30
2018-07-17T04:18:28.102Z,13.03
2018-07-17T04:20:56.862Z,12.50
2018-07-17T04:23:25.601Z,12.80
2018-07-17T04:25:54.335Z,12.20
2018-07-17T04:28:23.031Z,11.97
2018-07-17T04:30:51.754Z,12.00
2018-07-17T04:33:20.613Z,12.70
2018-07-17T04:35:49.433Z,11.87
2018-07-17T04:38:18.167Z,12.80
2018-07-17T04:40:46.886Z,12.27
2018-07-17T04:43:15.615Z,12.33
2018-07-17T04:45:44.311Z,11.77
2018-07-17T04:48:12.644Z,12.33
2018-07-17T04:50:41.347Z,12.03
2018-07-17T04:53:10.077Z,12.83
2018-07-17T04:55:38.790Z,14.07
2018-07-17T04:58:07.517Z,13.40
2018-07-17T05:00:36.250Z,13.87
2018-07-17T05:03:05.238Z,12.97
2018-07-17T05:05:34.037Z,13.40
2018-07-17T05:08:02.747Z,13.43
2018-07-17T05:10:31.515Z,13.43
2018-07-17T05:13:00.273Z,13.90
2018-07-17T05:15:28.959Z,13.50
2018-07-17T05:17:57.333Z,14.77
2018-07-17T05:20:26.029Z,12.53
2018-07-17T05:22:54.811Z,13.87
2018-07-17T05:25:23.482Z,13.23
2018-07-17T05:27:52.173Z,12.20
2018-07-17T05:30:20.910Z,12.50
2018-07-17T05:32:49.606Z,13.20
2018-07-17T05:35:18.516Z,12.93
2018-07-17T05:37:47.144Z,13.17
2018-07-17T05:40:15.515Z,12.97
2018-07-17T05:42:44.218Z,13.20
2018-07-17T05:45:12.956Z,14.17
2018-07-17T05:47:42.101Z,11.70
2018-07-17T05:50:12.150Z,13.33
2018-07-17T05:52:41.286Z,12.67
2018-07-17T05:55:10.030Z,13.43
2018-07-17T05:57:38.802Z,13.23
2018-07-17T06:00:08.362Z,12.80
2018-07-17T06:02:37.104Z,14.23
2018-07-17T06:05:05.973Z,13.10
2018-07-17T06:07:34.976Z,13.27
2018-07-17T06:10:03.795Z,12.63
2018-07-17T06:12:32.728Z,12.23
2018-07-17T06:15:01.241Z,12.20
2018-07-17T06:17:29.930Z,11.90
2018-07-17T06:19:58.700Z,11.60
2018-07-17T06:22:27.382Z,10.87
2018-07-17T06:24:56.136Z,10.90
2018-07-17T06:27:24.796Z,11.57
2018-07-17T06:29:53.520Z,11.13
2018-07-17T06:32:22.237Z,11.03
2018-07-17T06:34:51.031Z,11.47
2018-07-17T06:37:19.360Z,12.17
2018-07-17T06:39:48.116Z,12.60
2018-07-17T06:42:16.850Z,11.27
2018-07-17T06:44:45.640Z,11.80
2018-07-17T06:47:14.346Z,11.27
2018-07-17T06:49:43.105Z,11.40
2018-07-17T06:52:12.111Z,10.50
2018-07-17T06:54:40.891Z,10.57
2018-07-17T06:57:09.739Z,11.47
2018-07-17T06:59:38.499Z,13.80
2018-07-17T07:02:07.185Z,9.60
2018-07-17T07:04:35.898Z,10.57
2018-07-17T07:07:04.681Z,10.17
2018-07-17T07:09:33.438Z,9.67
2018-07-17T07:12:02.177Z,9.53
2018-07-17T07:14:30.892Z,9.67
2018-07-17T07:16:59.577Z,9.20
2018-07-17T07:19:28.344Z,9.47
2018-07-17T07:21:57.040Z,8.73
2018-07-17T07:24:25.798Z,8.50
2018-07-17T07:26:54.516Z,8.73
2018-07-17T07:29:23.244Z,8.33
2018-07-17T07:31:51.951Z,8.63
2018-07-17T07:34:20.761Z,8.10
2018-07-17T07:36:49.505Z,8.00
2018-07-17T07:39:18.234Z,7.67
2018-07-17T07:41:46.992Z,7.70
2018-07-17T07:44:15.682Z,7.47
2018-07-17T07:46:44.433Z,8.77
2018-07-17T07:49:13.126Z,9.73
2018-07-17T07:51:41.862Z,7.93
2018-07-17T07:54:10.577Z,8.00
2018-07-17T07:56:39.297Z,6.00
2018-07-17T07:59:07.982Z,6.37
2018-07-17T08:01:36.762Z,9.13
2018-07-17T08:04:05.561Z,6.97
2018-07-17T08:06:34.209Z,8.57
2018-07-17T08:09:03.030Z,7.90
2018-07-17T08:11:31.812Z,5.77
2018-07-17T08:14:00.502Z,6.53
2018-07-17T08:16:29.377Z,5.10
2018-07-17T08:18:58.039Z,4.93
2018-07-17T08:21:26.725Z,5.13
2018-07-17T08:23:55.374Z,5.07
2018-07-17T08:26:24.052Z,5.70
2018-07-17T08:28:52.709Z,4.17
2018-07-17T08:31:21.422Z,4.40
2018-07-17T08:33:50.124Z,4.27
2018-07-17T08:36:18.798Z,4.97
2018-07-17T08:38:47.489Z,4.83
2018-07-17T08:41:16.169Z,4.73
2018-07-17T08:43:44.939Z,4.60
2018-07-17T08:46:13.530Z,4.30
2018-07-17T08:48:42.213Z,4.00
2018-07-17T08:51:10.891Z,4.80
2018-07-17T08:53:39.584Z,5.30
2018-07-17T08:56:08.239Z,4.73
2018-07-17T08:58:36.937Z,4.40
2018-07-17T09:01:05.602Z,4.00
2018-07-17T09:03:34.250Z,4.70
2018-07-17T09:06:03.002Z,4.97
2018-07-17T09:08:31.727Z,4.03
2018-07-17T09:11:00.472Z,4.47
2018-07-17T09:13:29.153Z,4.00
2018-07-17T09:15:57.851Z,4.20
2018-07-17T09:18:26.510Z,4.53
2018-07-17T09:20:55.166Z,4.33
2018-07-17T09:23:23.849Z,4.97
2018-07-17T09:25:52.534Z,4.40
2018-07-17T09:28:21.393Z,5.03
2018-07-17T09:30:55.130Z,5.07
2018-07-17T09:33:23.834Z,5.00
2018-07-17T09:35:52.474Z,5.00
2018-07-17T09:38:21.119Z,4.80
2018-07-17T09:40:49.797Z,4.93
2018-07-17T09:43:18.483Z,4.80
2018-07-17T09:45:47.131Z,4.73
2018-07-17T09:48:15.786Z,4.80
2018-07-17T09:50:44.465Z,4.37
2018-07-17T09:53:13.081Z,4.10
2018-07-17T09:55:41.802Z,4.50
2018-07-17T09:58:10.509Z,4.13
2018-07-17T10:00:44.534Z,4.20
2018-07-17T10:03:13.178Z,4.17
2018-07-17T10:05:41.850Z,4.20
2018-07-17T10:08:10.510Z,4.50
2018-07-17T10:10:39.186Z,3.93
2018-07-17T10:13:07.925Z,3.83
2018-07-17T10:15:36.627Z,4.30
2018-07-17T10:18:05.362Z,4.40
2018-07-17T10:20:34.022Z,4.40
2018-07-17T10:23:02.662Z,6.70
2018-07-17T10:25:31.347Z,4.03
2018-07-17T10:27:59.999Z,4.40
2018-07-17T10:30:28.678Z,4.70
2018-07-17T10:32:57.358Z,4.00
2018-07-17T10:35:26.049Z,4.07
2018-07-17T10:37:54.687Z,3.93
2018-07-17T10:40:23.359Z,3.70
2018-07-17T10:42:52.037Z,4.30
2018-07-17T10:45:20.719Z,3.77
2018-07-17T10:47:49.423Z,3.90
2018-07-17T10:50:18.083Z,4.13
2018-07-17T10:52:46.802Z,3.63
2018-07-17T10:55:15.482Z,3.73
2018-07-17T10:57:44.169Z,4.27
2018-07-17T11:00:12.835Z,4.03
2018-07-17T11:02:41.550Z,3.70
2018-07-17T11:05:10.212Z,3.93
2018-07-17T11:07:38.896Z,4.70
2018-07-17T11:10:07.562Z,4.27
2018-07-17T11:12:36.422Z,4.40
2018-07-17T11:15:05.170Z,5.10
2018-07-17T11:17:33.848Z,3.93
2018-07-17T11:20:02.524Z,3.53
2018-07-17T11:22:31.285Z,3.93
2018-07-17T11:24:59.955Z,3.00
2018-07-17T11:27:28.647Z,3.73
2018-07-17T11:29:57.471Z,3.30
2018-07-17T11:32:26.190Z,3.90
2018-07-17T11:34:54.884Z,3.57
2018-07-17T11:37:23.600Z,3.33
2018-07-17T11:39:52.709Z,3.40
2018-07-17T11:42:21.418Z,3.50
2018-07-17T11:44:50.207Z,3.07
2018-07-17T11:47:18.970Z,3.33
2018-07-17T11:49:47.763Z,3.67
2018-07-17T11:52:16.676Z,4.23
2018-07-17T11:54:45.411Z,3.67
2018-07-17T11:57:14.279Z,3.33
2018-07-17T11:59:43.014Z,3.60
2018-07-17T12:02:12.086Z,3.43
2018-07-17T12:04:40.768Z,4.03
2018-07-17T12:07:09.443Z,3.70
2018-07-17T12:09:38.137Z,3.23
2018-07-17T12:12:07.039Z,3.50
2018-07-17T12:14:35.777Z,3.43
2018-07-17T12:17:04.467Z,3.20
2018-07-17T12:19:33.190Z,4.13
2018-07-17T12:22:01.888Z,3.57
2018-07-17T12:24:30.605Z,3.40
2018-07-17T12:26:59.291Z,3.87
2018-07-17T12:29:28.001Z,3.23
2018-07-17T12:31:56.357Z,3.77
2018-07-17T12:34:25.011Z,3.20
2018-07-17T12:36:53.707Z,3.23
2018-07-17T12:39:22.387Z,3.63
2018-07-17T12:41:51.054Z,3.03
2018-07-17T12:44:19.767Z,3.00
2018-07-17T12:46:48.553Z,6.80
2018-07-17T12:49:17.305Z,3.20
2018-07-17T12:51:46.058Z,3.00
2018-07-17T12:54:14.760Z,2.93
2018-07-17T12:56:43.473Z,3.47
2018-07-17T12:59:12.211Z,2.83
2018-07-17T13:01:40.922Z,3.27
2018-07-17T13:04:09.687Z,3.13
2018-07-17T13:06:38.539Z,3.23
2018-07-17T13:09:09.154Z,3.20
2018-07-17T13:11:37.896Z,3.07
2018-07-17T13:14:06.682Z,2.77
2018-07-17T13:16:35.430Z,3.30
2018-07-17T13:19:04.128Z,2.50
2018-07-17T13:21:32.811Z,2.60
2018-07-17T13:24:01.502Z,3.10
2018-07-17T13:26:30.288Z,3.03
2018-07-17T13:28:58.952Z,3.30
2018-07-17T13:31:27.631Z,3.20
2018-07-17T13:33:56.357Z,3.33
2018-07-17T13:36:25.053Z,2.60
2018-07-17T13:38:53.844Z,2.93
2018-07-17T13:41:22.525Z,3.43
2018-07-17T13:43:51.887Z,3.07
2018-07-17T13:46:20.268Z,4.60
2018-07-17T13:48:49.168Z,3.20
2018-07-17T13:51:17.972Z,2.50
2018-07-17T13:53:46.869Z,3.27
2018-07-17T13:56:15.766Z,4.53
2018-07-17T13:58:44.458Z,3.37
2018-07-17T14:01:13.194Z,3.17
2018-07-17T14:03:41.552Z,2.77
2018-07-17T14:06:10.229Z,3.23
2018-07-17T14:08:38.964Z,2.90
2018-07-17T14:11:07.700Z,3.00
2018-07-17T14:13:36.438Z,3.10
2018-07-17T14:16:11.783Z,2.67
2018-07-17T14:18:40.904Z,3.23
2018-07-17T14:21:09.642Z,2.70
2018-07-17T14:23:38.394Z,5.07
2018-07-17T14:26:07.175Z,5.33
2018-07-17T14:28:35.923Z,2.60
2018-07-17T14:31:04.822Z,3.40
2018-07-17T14:33:33.514Z,2.73
2018-07-17T14:36:02.787Z,3.70
2018-07-17T14:38:31.547Z,2.67
2018-07-17T14:41:00.325Z,3.53
2018-07-17T14:43:29.085Z,3.53
2018-07-17T14:45:57.766Z,3.30
2018-07-17T14:48:26.478Z,2.80
2018-07-17T14:50:55.194Z,3.10
2018-07-17T14:53:23.915Z,2.87
2018-07-17T14:55:52.676Z,3.33
2018-07-17T14:58:21.409Z,2.37
2018-07-17T15:00:49.701Z,2.57
2018-07-17T15:03:18.415Z,2.40
2018-07-17T15:05:47.170Z,2.50
2018-07-17T15:08:15.977Z,3.27
2018-07-17T15:10:44.725Z,2.87
2018-07-17T15:13:13.462Z,2.60
2018-07-17T15:15:42.283Z,2.50
2018-07-17T15:18:10.927Z,3.83
2018-07-17T15:20:39.979Z,2.77
2018-07-17T15:23:08.856Z,2.83
2018-07-17T15:25:37.543Z,2.93
2018-07-17T15:28:06.331Z,2.50
2018-07-17T15:30:35.153Z,4.93
2018-07-17T15:33:04.844Z,3.17
2018-07-17T15:35:33.516Z,2.97
2018-07-17T15:38:02.285Z,2.93
2018-07-17T15:40:30.995Z,2.97
2018-07-17T15:42:59.715Z,3.27
2018-07-17T15:45:28.403Z,2.70
2018-07-17T15:47:57.141Z,2.60
2018-07-17T15:50:26.018Z,2.97
2018-07-17T15:52:54.719Z,2.80
2018-07-17T15:55:23.586Z,4.07
2018-07-17T15:57:52.341Z,3.70
2018-07-17T16:00:21.130Z,3.27
2018-07-17T16:02:49.837Z,3.13
2018-07-17T16:05:18.614Z,5.27
2018-07-17T16:07:47.373Z,3.23
2018-07-17T16:10:16.095Z,3.10
2018-07-17T16:12:44.839Z,3.03
2018-07-17T16:15:13.600Z,5.13
2018-07-17T16:17:42.446Z,3.33
2018-07-17T16:20:11.235Z,3.33
2018-07-17T16:22:39.953Z,3.20
2018-07-17T16:25:08.740Z,3.73
2018-07-17T16:27:37.519Z,3.20
2018-07-17T16:30:07.025Z,3.20
2018-07-17T16:32:35.733Z,3.30
2018-07-17T16:35:04.478Z,3.10
2018-07-17T16:37:33.283Z,3.20
2018-07-17T16:40:01.971Z,3.23
2018-07-17T16:42:30.856Z,4.17
2018-07-17T16:44:59.522Z,3.90
2018-07-17T16:47:29.317Z,3.33
2018-07-17T16:49:58.138Z,3.60
2018-07-17T16:52:26.821Z,4.53
2018-07-17T16:54:55.483Z,3.77
2018-07-17T16:57:24.193Z,3.50
2018-07-17T16:59:52.904Z,3.50
2018-07-17T17:02:21.579Z,2.90
2018-07-17T17:04:50.283Z,4.87
2018-07-17T17:07:18.964Z,6.37
2018-07-17T17:09:47.731Z,3.67
2018-07-17T17:12:16.468Z,3.10
2018-07-17T17:14:45.223Z,5.90
2018-07-17T17:17:13.882Z,6.53
2018-07-17T17:19:42.598Z,4.07
2018-07-17T17:22:11.314Z,4.40
2018-07-17T17:24:40.147Z,4.00
2018-07-17T17:27:08.734Z,4.77
2018-07-17T17:29:37.466Z,6.50
2018-07-17T17:32:06.282Z,3.57
2018-07-17T17:34:35.037Z,10.60
2018-07-17T17:37:03.962Z,9.13
2018-07-17T17:39:32.285Z,3.70
2018-07-17T17:42:00.955Z,4.23
2018-07-17T17:44:29.694Z,4.20
2018-07-17T17:46:58.410Z,3.70
2018-07-17T17:49:27.130Z,4.10
2018-07-17T17:51:55.940Z,5.13
2018-07-17T17:54:24.615Z,6.23
2018-07-17T17:56:53.323Z,6.83
2018-07-17T17:59:22.264Z,3.93
2018-07-17T18:01:51.003Z,4.70
2018-07-17T18:04:19.773Z,4.53
2018-07-17T18:06:48.462Z,4.20
2018-07-17T18:09:17.215Z,4.40
2018-07-17T18:11:45.909Z,3.80
2018-07-17T18:14:14.638Z,4.10
2018-07-17T18:16:43.349Z,6.53
2018-07-17T18:19:11.663Z,3.97
2018-07-17T18:21:40.683Z,3.73
2018-07-17T18:24:09.482Z,6.37
2018-07-17T18:26:38.206Z,4.37
2018-07-17T18:29:07.754Z,4.33
2018-07-17T18:31:36.518Z,4.70
2018-07-17T18:34:05.674Z,3.43
2018-07-17T18:36:35.386Z,4.13
2018-07-17T18:39:05.990Z,3.80
2018-07-17T18:41:34.769Z,3.67
2018-07-17T18:44:03.423Z,3.97
2018-07-17T18:46:33.250Z,3.40
2018-07-17T18:49:02.168Z,3.60
2018-07-17T18:51:31.245Z,4.17
2018-07-17T18:54:00.040Z,6.13
2018-07-17T18:56:29.170Z,3.87
2018-07-17T18:58:57.928Z,6.70
2018-07-17T19:01:27.172Z,4.23
2018-07-17T19:03:56.202Z,7.07
2018-07-17T19:06:24.921Z,3.83
2018-07-17T19:08:53.651Z,3.87
2018-07-17T19:11:22.397Z,6.47
2018-07-17T19:13:51.145Z,5.70
2018-07-17T19:16:20.041Z,3.90
2018-07-17T19:18:50.802Z,4.60
2018-07-17T19:21:19.738Z,4.07
2018-07-17T19:23:48.330Z,3.93
2018-07-17T19:26:17.159Z,4.60
2018-07-17T19:28:45.885Z,5.27
2018-07-17T19:31:14.636Z,4.17
2018-07-17T19:33:43.350Z,5.50
2018-07-17T19:36:12.084Z,4.53
2018-07-17T19:38:40.799Z,3.77
2018-07-17T19:41:09.523Z,4.20
2018-07-17T19:43:38.391Z,4.03
2018-07-17T19:46:07.115Z,3.63
2018-07-17T19:48:35.828Z,4.20
2018-07-17T19:51:04.531Z,4.80
2018-07-17T19:53:33.455Z,4.40
2018-07-17T19:56:02.172Z,14.27
2018-07-17T19:58:30.508Z,4.87
2018-07-17T20:00:59.274Z,3.90
2018-07-17T20:03:28.293Z,5.53
2018-07-17T20:06:01.007Z,6.03
2018-07-17T20:08:29.906Z,4.53
2018-07-17T20:10:58.605Z,4.47
2018-07-17T20:13:27.359Z,5.30
2018-07-17T20:15:56.086Z,5.33
2018-07-17T20:18:24.786Z,4.00
2018-07-17T20:20:53.494Z,7.90
2018-07-17T20:23:22.240Z,4.20
2018-07-17T20:25:50.982Z,4.60
2018-07-17T20:28:19.726Z,10.07
2018-07-17T20:30:48.464Z,6.37
2018-07-17T20:33:17.177Z,6.23
2018-07-17T20:35:45.978Z,6.00
2018-07-17T20:38:14.711Z,4.10
2018-07-17T20:40:43.489Z,3.77
2018-07-17T20:43:12.252Z,4.57
2018-07-17T20:45:41.647Z,4.93
2018-07-17T20:48:10.391Z,7.43
2018-07-17T20:50:39.114Z,4.53
2018-07-17T20:53:07.965Z,5.17
2018-07-17T20:55:36.662Z,4.80
2018-07-17T20:58:05.382Z,6.27
2018-07-17T21:00:34.123Z,5.07
2018-07-17T21:03:02.831Z,4.87
2018-07-17T21:05:31.607Z,5.13
2018-07-17T21:08:00.395Z,5.10
2018-07-17T21:10:29.086Z,4.60
2018-07-17T21:12:57.819Z,5.50
2018-07-17T21:15:26.541Z,9.57
2018-07-17T21:17:55.224Z,4.23
2018-07-17T21:20:23.978Z,4.70
2018-07-17T21:22:52.672Z,5.10
2018-07-17T21:25:21.418Z,6.07
2018-07-17T21:27:50.104Z,4.30
2018-07-17T21:30:18.854Z,4.40
2018-07-17T21:32:47.570Z,5.27
2018-07-17T21:35:16.266Z,7.67
2018-07-17T21:37:45.015Z,4.70
2018-07-17T21:40:13.730Z,6.13
2018-07-17T21:42:42.435Z,4.67
2018-07-17T21:45:11.168Z,4.87
2018-07-17T21:47:39.890Z,4.53
2018-07-17T21:50:08.701Z,4.00
2018-07-17T21:52:37.370Z,6.70
2018-07-17T21:55:06.108Z,5.70
2018-07-17T21:57:34.822Z,4.93
2018-07-17T22:00:03.600Z,6.03
2018-07-17T22:02:32.346Z,5.00
2018-07-17T22:05:01.122Z,6.63
2018-07-17T22:07:29.854Z,5.17
2018-07-17T22:09:58.607Z,5.07
2018-07-17T22:12:27.332Z,4.80
2018-07-17T22:14:56.139Z,5.20
2018-07-17T22:17:24.830Z,4.90
2018-07-17T22:19:53.518Z,5.43
2018-07-17T22:22:23.881Z,4.77
2018-07-17T22:24:52.584Z,6.63
2018-07-17T22:27:21.324Z,4.77
2018-07-17T22:29:50.039Z,5.60
2018-07-17T22:32:18.768Z,7.33
2018-07-17T22:34:47.519Z,6.17
2018-07-17T22:37:16.260Z,4.80
2018-07-17T22:39:45.242Z,4.83
2018-07-17T22:42:13.935Z,5.53
2018-07-17T22:44:42.703Z,9.27
2018-07-17T22:47:11.408Z,5.37
2018-07-17T22:49:40.101Z,5.30
2018-07-17T22:52:08.857Z,5.07
2018-07-17T22:54:37.561Z,6.93
2018-07-17T22:57:06.231Z,6.43
2018-07-17T22:59:34.939Z,4.90
2018-07-17T23:02:03.712Z,5.50
2018-07-17T23:04:32.764Z,5.90
2018-07-17T23:07:01.475Z,4.93
2018-07-17T23:09:30.149Z,5.77
2018-07-17T23:11:58.934Z,5.43
2018-07-17T23:14:27.309Z,5.00
2018-07-17T23:16:56.106Z,8.37
2018-07-17T23:19:24.854Z,5.57
2018-07-17T23:21:53.555Z,4.93
2018-07-17T23:24:22.289Z,4.83
2018-07-17T23:26:50.968Z,5.70
2018-07-17T23:29:19.677Z,7.23
2018-07-17T23:31:48.378Z,6.63
2018-07-17T23:34:17.834Z,4.67
2018-07-17T23:36:46.569Z,5.13
2018-07-17T23:39:15.274Z,5.13
2018-07-17T23:41:43.999Z,5.63
2018-07-17T23:44:12.705Z,4.73
2018-07-17T23:46:41.419Z,4.80
2018-07-17T23:49:14.311Z,5.30
2018-07-17T23:51:43.017Z,5.87
2018-07-17T23:54:11.722Z,7.83
2018-07-17T23:56:40.437Z,6.23
2018-07-17T23:59:09.178Z,5.97
